sensor_id;sensor_type;location;lat;lon;timestamp;P1;durP1;ratioP1;P2;durP2;ratioP2
26582;SDS011;14230;45.382;10.998;2023-03-11T00:00:26;4.07;;;2.03;;
26582;SDS011;14230;45.382;10.998;2023-03-11T00:02:56;3.13;;;1.45;;
26582;SDS011;14230;45.382;10.998;2023-03-11T00:05:29;6.97;;;1.58;;
26582;SDS011;14230;45.382;10.998;2023-03-11T00:07:59;7.65;;;1.52;;
26582;SDS011;14230;45.382;10.998;2023-03-11T00:10:28;7.60;;;1.60;;
26582;SDS011;14230;45.382;10.998;2023-03-11T00:12:58;2.70;;;1.58;;
26582;SDS011;14230;45.382;10.998;2023-03-11T00:15:27;3.95;;;1.60;;
26582;SDS011;14230;45.382;10.998;2023-03-11T00:17:55;4.93;;;1.70;;
26582;SDS011;14230;45.382;10.998;2023-03-11T00:20:27;7.72;;;1.70;;
26582;SDS011;14230;45.382;10.998;2023-03-11T00:22:57;5.07;;;1.80;;
26582;SDS011;14230;45.382;10.998;2023-03-11T00:25:26;2.67;;;1.50;;
26582;SDS011;14230;45.382;10.998;2023-03-11T00:27:55;7.15;;;1.77;;
26582;SDS011;14230;45.382;10.998;2023-03-11T00:30:23;2.88;;;1.40;;
26582;SDS011;14230;45.382;10.998;2023-03-11T00:32:52;5.57;;;1.70;;
26582;SDS011;14230;45.382;10.998;2023-03-11T00:35:22;4.32;;;1.55;;
26582;SDS011;14230;45.382;10.998;2023-03-11T00:37:53;2.13;;;1.42;;
26582;SDS011;14230;45.382;10.998;2023-03-11T00:40:24;4.18;;;1.55;;
26582;SDS011;14230;45.382;10.998;2023-03-11T00:42:53;7.38;;;1.17;;
26582;SDS011;14230;45.382;10.998;2023-03-11T00:45:21;1.35;;;1.25;;
26582;SDS011;14230;45.382;10.998;2023-03-11T00:47:49;1.13;;;1.10;;
26582;SDS011;14230;45.382;10.998;2023-03-11T00:50:21;6.78;;;1.50;;
26582;SDS011;14230;45.382;10.998;2023-03-11T00:52:51;3.35;;;1.33;;
26582;SDS011;14230;45.382;10.998;2023-03-11T00:55:20;4.00;;;1.60;;
26582;SDS011;14230;45.382;10.998;2023-03-11T00:57:50;3.13;;;1.30;;
26582;SDS011;14230;45.382;10.998;2023-03-11T01:00:25;4.45;;;1.35;;
26582;SDS011;14230;45.382;10.998;2023-03-11T01:02:54;3.92;;;1.35;;
26582;SDS011;14230;45.382;10.998;2023-03-11T01:05:24;2.47;;;1.60;;
26582;SDS011;14230;45.382;10.998;2023-03-11T01:07:56;1.67;;;1.23;;
26582;SDS011;14230;45.382;10.998;2023-03-11T01:10:25;2.67;;;1.30;;
26582;SDS011;14230;45.382;10.998;2023-03-11T01:12:54;1.63;;;1.15;;
26582;SDS011;14230;45.382;10.998;2023-03-11T01:15:25;2.95;;;1.50;;
26582;SDS011;14230;45.382;10.998;2023-03-11T01:17:54;3.85;;;1.25;;
26582;SDS011;14230;45.382;10.998;2023-03-11T01:20:22;2.28;;;1.35;;
26582;SDS011;14230;45.382;10.998;2023-03-11T01:22:49;5.95;;;1.58;;
26582;SDS011;14230;45.382;10.998;2023-03-11T01:25:19;3.95;;;1.30;;
26582;SDS011;14230;45.382;10.998;2023-03-11T01:27:49;3.22;;;1.65;;
26582;SDS011;14230;45.382;10.998;2023-03-11T01:30:20;3.55;;;1.60;;
26582;SDS011;14230;45.382;10.998;2023-03-11T01:32:50;1.35;;;1.20;;
26582;SDS011;14230;45.382;10.998;2023-03-11T01:35:19;3.45;;;1.30;;
26582;SDS011;14230;45.382;10.998;2023-03-11T01:37:47;2.78;;;1.75;;
26582;SDS011;14230;45.382;10.998;2023-03-11T01:40:20;3.03;;;1.67;;
26582;SDS011;14230;45.382;10.998;2023-03-11T01:42:58;2.92;;;1.73;;
26582;SDS011;14230;45.382;10.998;2023-03-11T01:45:33;3.95;;;1.95;;
26582;SDS011;14230;45.382;10.998;2023-03-11T01:48:30;3.65;;;1.52;;
26582;SDS011;14230;45.382;10.998;2023-03-11T01:50:58;3.83;;;1.92;;
26582;SDS011;14230;45.382;10.998;2023-03-11T01:53:26;1.77;;;1.40;;
26582;SDS011;14230;45.382;10.998;2023-03-11T01:55:53;2.55;;;1.40;;
26582;SDS011;14230;45.382;10.998;2023-03-11T01:58:23;2.67;;;1.42;;
26582;SDS011;14230;45.382;10.998;2023-03-11T02:00:52;2.80;;;1.40;;
26582;SDS011;14230;45.382;10.998;2023-03-11T02:03:31;1.77;;;1.40;;
26582;SDS011;14230;45.382;10.998;2023-03-11T02:06:04;2.47;;;1.15;;
26582;SDS011;14230;45.382;10.998;2023-03-11T02:08:35;3.78;;;1.70;;
26582;SDS011;14230;45.382;10.998;2023-03-11T02:11:05;3.78;;;1.23;;
26582;SDS011;14230;45.382;10.998;2023-03-11T02:13:35;2.88;;;1.40;;
26582;SDS011;14230;45.382;10.998;2023-03-11T02:16:03;1.20;;;1.10;;
26582;SDS011;14230;45.382;10.998;2023-03-11T02:18:31;4.88;;;1.60;;
26582;SDS011;14230;45.382;10.998;2023-03-11T02:23:58;2.85;;;1.42;;
26582;SDS011;14230;45.382;10.998;2023-03-11T02:26:53;7.80;;;1.60;;
26582;SDS011;14230;45.382;10.998;2023-03-11T02:29:29;5.85;;;1.33;;
26582;SDS011;14230;45.382;10.998;2023-03-11T02:32:00;3.28;;;1.40;;
26582;SDS011;14230;45.382;10.998;2023-03-11T02:34:33;1.63;;;1.52;;
26582;SDS011;14230;45.382;10.998;2023-03-11T02:37:07;5.40;;;1.38;;
26582;SDS011;14230;45.382;10.998;2023-03-11T02:39:42;4.05;;;1.50;;
26582;SDS011;14230;45.382;10.998;2023-03-11T02:42:24;2.38;;;1.50;;
26582;SDS011;14230;45.382;10.998;2023-03-11T02:44:56;2.03;;;1.08;;
26582;SDS011;14230;45.382;10.998;2023-03-11T02:47:34;1.75;;;1.48;;
26582;SDS011;14230;45.382;10.998;2023-03-11T02:50:07;2.72;;;1.50;;
26582;SDS011;14230;45.382;10.998;2023-03-11T02:52:38;2.50;;;1.53;;
26582;SDS011;14230;45.382;10.998;2023-03-11T02:55:05;3.03;;;1.30;;
26582;SDS011;14230;45.382;10.998;2023-03-11T02:57:35;2.97;;;1.73;;
26582;SDS011;14230;45.382;10.998;2023-03-11T03:00:04;6.00;;;1.48;;
26582;SDS011;14230;45.382;10.998;2023-03-11T03:02:43;3.55;;;1.35;;
26582;SDS011;14230;45.382;10.998;2023-03-11T03:05:12;2.63;;;1.67;;
26582;SDS011;14230;45.382;10.998;2023-03-11T03:07:40;2.40;;;1.60;;
26582;SDS011;14230;45.382;10.998;2023-03-11T03:10:08;4.18;;;2.17;;
26582;SDS011;14230;45.382;10.998;2023-03-11T03:12:36;3.42;;;1.92;;
26582;SDS011;14230;45.382;10.998;2023-03-11T03:15:03;5.15;;;1.55;;
26582;SDS011;14230;45.382;10.998;2023-03-11T03:17:31;1.65;;;1.55;;
26582;SDS011;14230;45.382;10.998;2023-03-11T03:19:59;3.28;;;1.73;;
26582;SDS011;14230;45.382;10.998;2023-03-11T03:22:27;8.55;;;2.10;;
26582;SDS011;14230;45.382;10.998;2023-03-11T03:24:56;2.67;;;1.95;;
26582;SDS011;14230;45.382;10.998;2023-03-11T03:27:24;2.67;;;1.58;;
26582;SDS011;14230;45.382;10.998;2023-03-11T03:29:51;3.50;;;1.77;;
26582;SDS011;14230;45.382;10.998;2023-03-11T03:32:19;4.10;;;1.85;;
26582;SDS011;14230;45.382;10.998;2023-03-11T03:34:47;4.75;;;1.58;;
26582;SDS011;14230;45.382;10.998;2023-03-11T03:37:14;4.25;;;2.35;;
26582;SDS011;14230;45.382;10.998;2023-03-11T03:39:42;4.35;;;1.70;;
26582;SDS011;14230;45.382;10.998;2023-03-11T03:42:11;2.55;;;1.58;;
26582;SDS011;14230;45.382;10.998;2023-03-11T03:44:40;2.88;;;1.83;;
26582;SDS011;14230;45.382;10.998;2023-03-11T03:47:07;3.90;;;1.80;;
26582;SDS011;14230;45.382;10.998;2023-03-11T03:49:35;3.05;;;1.67;;
26582;SDS011;14230;45.382;10.998;2023-03-11T03:52:06;5.50;;;1.60;;
26582;SDS011;14230;45.382;10.998;2023-03-11T03:54:35;4.25;;;2.17;;
26582;SDS011;14230;45.382;10.998;2023-03-11T03:57:03;2.55;;;1.77;;
26582;SDS011;14230;45.382;10.998;2023-03-11T03:59:36;1.83;;;1.60;;
26582;SDS011;14230;45.382;10.998;2023-03-11T04:02:04;2.08;;;1.85;;
26582;SDS011;14230;45.382;10.998;2023-03-11T04:04:31;2.10;;;1.58;;
26582;SDS011;14230;45.382;10.998;2023-03-11T04:06:59;2.65;;;1.88;;
26582;SDS011;14230;45.382;10.998;2023-03-11T04:09:29;2.05;;;1.48;;
26582;SDS011;14230;45.382;10.998;2023-03-11T04:11:56;6.03;;;2.13;;
26582;SDS011;14230;45.382;10.998;2023-03-11T04:14:25;3.15;;;1.50;;
26582;SDS011;14230;45.382;10.998;2023-03-11T04:16:57;3.22;;;1.90;;
26582;SDS011;14230;45.382;10.998;2023-03-11T04:19:25;5.15;;;1.52;;
26582;SDS011;14230;45.382;10.998;2023-03-11T04:21:52;2.35;;;1.80;;
26582;SDS011;14230;45.382;10.998;2023-03-11T04:24:22;4.13;;;1.90;;
26582;SDS011;14230;45.382;10.998;2023-03-11T04:26:50;2.53;;;1.48;;
26582;SDS011;14230;45.382;10.998;2023-03-11T04:29:18;3.20;;;1.77;;
26582;SDS011;14230;45.382;10.998;2023-03-11T04:31:49;5.30;;;2.40;;
26582;SDS011;14230;45.382;10.998;2023-03-11T04:34:17;7.53;;;1.90;;
26582;SDS011;14230;45.382;10.998;2023-03-11T04:36:44;4.47;;;1.75;;
26582;SDS011;14230;45.382;10.998;2023-03-11T04:39:14;4.32;;;1.70;;
26582;SDS011;14230;45.382;10.998;2023-03-11T04:41:44;1.50;;;1.40;;
26582;SDS011;14230;45.382;10.998;2023-03-11T04:44:15;2.27;;;1.67;;
26582;SDS011;14230;45.382;10.998;2023-03-11T04:46:44;2.17;;;1.75;;
26582;SDS011;14230;45.382;10.998;2023-03-11T04:49:11;4.82;;;1.90;;
26582;SDS011;14230;45.382;10.998;2023-03-11T04:51:39;7.10;;;2.25;;
26582;SDS011;14230;45.382;10.998;2023-03-11T04:54:08;6.80;;;2.90;;
26582;SDS011;14230;45.382;10.998;2023-03-11T04:56:36;2.65;;;1.80;;
26582;SDS011;14230;45.382;10.998;2023-03-11T04:59:05;2.40;;;1.70;;
26582;SDS011;14230;45.382;10.998;2023-03-11T05:01:34;5.97;;;1.70;;
26582;SDS011;14230;45.382;10.998;2023-03-11T05:04:04;4.53;;;1.65;;
26582;SDS011;14230;45.382;10.998;2023-03-11T05:06:32;4.35;;;1.98;;
26582;SDS011;14230;45.382;10.998;2023-03-11T05:09:01;6.22;;;2.50;;
26582;SDS011;14230;45.382;10.998;2023-03-11T05:11:34;7.70;;;2.05;;
26582;SDS011;14230;45.382;10.998;2023-03-11T05:14:02;6.05;;;1.95;;
26582;SDS011;14230;45.382;10.998;2023-03-11T05:16:29;3.47;;;2.38;;
26582;SDS011;14230;45.382;10.998;2023-03-11T05:18:57;6.88;;;2.58;;
26582;SDS011;14230;45.382;10.998;2023-03-11T05:21:25;6.68;;;2.40;;
26582;SDS011;14230;45.382;10.998;2023-03-11T05:23:52;3.03;;;2.15;;
26582;SDS011;14230;45.382;10.998;2023-03-11T05:26:20;5.28;;;2.15;;
26582;SDS011;14230;45.382;10.998;2023-03-11T05:28:47;1.98;;;1.63;;
26582;SDS011;14230;45.382;10.998;2023-03-11T05:31:15;5.03;;;2.50;;
26582;SDS011;14230;45.382;10.998;2023-03-11T05:33:42;3.65;;;2.17;;
26582;SDS011;14230;45.382;10.998;2023-03-11T05:36:12;6.18;;;2.60;;
26582;SDS011;14230;45.382;10.998;2023-03-11T05:38:42;5.40;;;2.03;;
26582;SDS011;14230;45.382;10.998;2023-03-11T05:41:10;6.07;;;2.13;;
26582;SDS011;14230;45.382;10.998;2023-03-11T05:43:40;4.85;;;2.30;;
26582;SDS011;14230;45.382;10.998;2023-03-11T05:46:07;4.13;;;2.00;;
26582;SDS011;14230;45.382;10.998;2023-03-11T05:48:36;6.07;;;2.28;;
26582;SDS011;14230;45.382;10.998;2023-03-11T05:51:08;5.78;;;2.35;;
26582;SDS011;14230;45.382;10.998;2023-03-11T05:53:41;4.65;;;2.10;;
26582;SDS011;14230;45.382;10.998;2023-03-11T05:56:18;4.78;;;2.17;;
26582;SDS011;14230;45.382;10.998;2023-03-11T05:58:48;5.05;;;2.40;;
26582;SDS011;14230;45.382;10.998;2023-03-11T06:01:17;5.60;;;2.25;;
26582;SDS011;14230;45.382;10.998;2023-03-11T06:03:46;5.45;;;2.40;;
26582;SDS011;14230;45.382;10.998;2023-03-11T06:06:13;4.65;;;2.13;;
26582;SDS011;14230;45.382;10.998;2023-03-11T06:08:41;6.18;;;2.00;;
26582;SDS011;14230;45.382;10.998;2023-03-11T06:11:16;4.95;;;2.35;;
26582;SDS011;14230;45.382;10.998;2023-03-11T06:13:44;5.70;;;2.30;;
26582;SDS011;14230;45.382;10.998;2023-03-11T06:16:12;3.90;;;2.10;;
26582;SDS011;14230;45.382;10.998;2023-03-11T06:18:40;3.55;;;2.42;;
26582;SDS011;14230;45.382;10.998;2023-03-11T06:21:08;8.15;;;2.70;;
26582;SDS011;14230;45.382;10.998;2023-03-11T06:23:46;8.88;;;2.97;;
26582;SDS011;14230;45.382;10.998;2023-03-11T06:26:16;7.93;;;3.20;;
26582;SDS011;14230;45.382;10.998;2023-03-11T06:28:46;7.72;;;3.30;;
26582;SDS011;14230;45.382;10.998;2023-03-11T06:31:15;7.47;;;2.80;;
26582;SDS011;14230;45.382;10.998;2023-03-11T06:33:45;5.38;;;2.88;;
26582;SDS011;14230;45.382;10.998;2023-03-11T06:36:14;3.35;;;2.53;;
26582;SDS011;14230;45.382;10.998;2023-03-11T06:38:43;5.25;;;3.08;;
26582;SDS011;14230;45.382;10.998;2023-03-11T06:41:14;5.65;;;2.97;;
26582;SDS011;14230;45.382;10.998;2023-03-11T06:43:42;14.52;;;3.65;;
26582;SDS011;14230;45.382;10.998;2023-03-11T06:46:10;5.88;;;2.92;;
26582;SDS011;14230;45.382;10.998;2023-03-11T06:48:43;5.50;;;3.67;;
26582;SDS011;14230;45.382;10.998;2023-03-11T06:51:13;6.47;;;2.92;;
26582;SDS011;14230;45.382;10.998;2023-03-11T06:53:41;8.50;;;3.22;;
26582;SDS011;14230;45.382;10.998;2023-03-11T06:56:10;8.60;;;3.28;;
26582;SDS011;14230;45.382;10.998;2023-03-11T06:58:44;9.18;;;4.15;;
26582;SDS011;14230;45.382;10.998;2023-03-11T07:01:14;12.57;;;4.88;;
26582;SDS011;14230;45.382;10.998;2023-03-11T07:03:45;10.35;;;4.60;;
26582;SDS011;14230;45.382;10.998;2023-03-11T07:06:14;5.40;;;3.78;;
26582;SDS011;14230;45.382;10.998;2023-03-11T07:08:53;7.00;;;3.10;;
26582;SDS011;14230;45.382;10.998;2023-03-11T07:11:21;7.68;;;3.20;;
26582;SDS011;14230;45.382;10.998;2023-03-11T07:13:54;6.30;;;3.45;;
26582;SDS011;14230;45.382;10.998;2023-03-11T07:16:25;5.57;;;2.95;;
26582;SDS011;14230;45.382;10.998;2023-03-11T07:19:00;6.25;;;2.95;;
26582;SDS011;14230;45.382;10.998;2023-03-11T07:21:29;5.47;;;3.10;;
26582;SDS011;14230;45.382;10.998;2023-03-11T07:23:59;3.97;;;3.15;;
26582;SDS011;14230;45.382;10.998;2023-03-11T07:26:28;5.40;;;3.47;;
26582;SDS011;14230;45.382;10.998;2023-03-11T07:28:57;8.10;;;3.72;;
26582;SDS011;14230;45.382;10.998;2023-03-11T07:31:26;6.60;;;3.45;;
26582;SDS011;14230;45.382;10.998;2023-03-11T07:33:56;7.07;;;4.40;;
26582;SDS011;14230;45.382;10.998;2023-03-11T07:36:25;9.35;;;3.92;;
26582;SDS011;14230;45.382;10.998;2023-03-11T07:39:01;6.28;;;4.55;;
26582;SDS011;14230;45.382;10.998;2023-03-11T07:41:31;7.15;;;5.05;;
26582;SDS011;14230;45.382;10.998;2023-03-11T07:44:00;7.97;;;5.17;;
26582;SDS011;14230;45.382;10.998;2023-03-11T07:46:32;9.45;;;4.80;;
26582;SDS011;14230;45.382;10.998;2023-03-11T07:49:12;7.75;;;4.75;;
26582;SDS011;14230;45.382;10.998;2023-03-11T07:51:43;7.20;;;4.65;;
26582;SDS011;14230;45.382;10.998;2023-03-11T07:54:20;12.13;;;4.75;;
26582;SDS011;14230;45.382;10.998;2023-03-11T07:56:54;15.05;;;5.18;;
26582;SDS011;14230;45.382;10.998;2023-03-11T07:59:27;8.15;;;4.68;;
26582;SDS011;14230;45.382;10.998;2023-03-11T08:01:55;8.85;;;5.10;;
26582;SDS011;14230;45.382;10.998;2023-03-11T08:04:22;11.15;;;4.57;;
26582;SDS011;14230;45.382;10.998;2023-03-11T08:06:50;12.18;;;5.28;;
26582;SDS011;14230;45.382;10.998;2023-03-11T08:09:18;10.43;;;5.00;;
26582;SDS011;14230;45.382;10.998;2023-03-11T08:11:52;11.27;;;4.97;;
26582;SDS011;14230;45.382;10.998;2023-03-11T08:14:20;13.23;;;5.10;;
26582;SDS011;14230;45.382;10.998;2023-03-11T08:16:54;13.60;;;5.18;;
26582;SDS011;14230;45.382;10.998;2023-03-11T08:19:24;11.77;;;4.75;;
26582;SDS011;14230;45.382;10.998;2023-03-11T08:22:01;15.10;;;4.65;;
26582;SDS011;14230;45.382;10.998;2023-03-11T08:24:32;9.10;;;4.78;;
26582;SDS011;14230;45.382;10.998;2023-03-11T08:27:10;8.27;;;4.93;;
26582;SDS011;14230;45.382;10.998;2023-03-11T08:29:38;14.88;;;5.95;;
26582;SDS011;14230;45.382;10.998;2023-03-11T08:32:16;13.77;;;6.28;;
26582;SDS011;14230;45.382;10.998;2023-03-11T08:35:13;11.65;;;7.45;;
26582;SDS011;14230;45.382;10.998;2023-03-11T08:37:46;9.27;;;4.75;;
26582;SDS011;14230;45.382;10.998;2023-03-11T08:40:18;13.85;;;7.00;;
26582;SDS011;14230;45.382;10.998;2023-03-11T08:42:52;16.15;;;5.80;;
26582;SDS011;14230;45.382;10.998;2023-03-11T08:45:21;16.10;;;7.25;;
26582;SDS011;14230;45.382;10.998;2023-03-11T08:47:49;15.00;;;7.28;;
26582;SDS011;14230;45.382;10.998;2023-03-11T08:50:17;11.02;;;6.47;;
26582;SDS011;14230;45.382;10.998;2023-03-11T08:52:45;16.10;;;7.10;;
26582;SDS011;14230;45.382;10.998;2023-03-11T08:55:13;20.40;;;9.77;;
26582;SDS011;14230;45.382;10.998;2023-03-11T08:57:43;20.95;;;11.27;;
26582;SDS011;14230;45.382;10.998;2023-03-11T09:00:11;19.35;;;9.73;;
26582;SDS011;14230;45.382;10.998;2023-03-11T09:02:39;20.85;;;9.85;;
26582;SDS011;14230;45.382;10.998;2023-03-11T09:05:08;19.70;;;10.30;;
26582;SDS011;14230;45.382;10.998;2023-03-11T09:07:36;21.75;;;11.23;;
26582;SDS011;14230;45.382;10.998;2023-03-11T09:10:04;20.33;;;10.80;;
26582;SDS011;14230;45.382;10.998;2023-03-11T09:12:34;14.98;;;11.02;;
26582;SDS011;14230;45.382;10.998;2023-03-11T09:15:01;18.85;;;11.40;;
26582;SDS011;14230;45.382;10.998;2023-03-11T09:17:29;20.88;;;12.73;;
26582;SDS011;14230;45.382;10.998;2023-03-11T09:19:59;18.45;;;13.13;;
26582;SDS011;14230;45.382;10.998;2023-03-11T09:22:27;21.70;;;13.32;;
26582;SDS011;14230;45.382;10.998;2023-03-11T09:24:55;20.70;;;13.85;;
26582;SDS011;14230;45.382;10.998;2023-03-11T09:27:23;18.70;;;12.70;;
26582;SDS011;14230;45.382;10.998;2023-03-11T09:29:51;20.67;;;14.13;;
26582;SDS011;14230;45.382;10.998;2023-03-11T09:32:18;20.35;;;12.98;;
26582;SDS011;14230;45.382;10.998;2023-03-11T09:34:47;21.23;;;14.38;;
26582;SDS011;14230;45.382;10.998;2023-03-11T09:37:15;23.98;;;14.70;;
26582;SDS011;14230;45.382;10.998;2023-03-11T09:39:42;25.90;;;14.20;;
26582;SDS011;14230;45.382;10.998;2023-03-11T09:47:18;21.70;;;13.18;;
26582;SDS011;14230;45.382;10.998;2023-03-11T09:50:07;23.83;;;15.00;;
26582;SDS011;14230;45.382;10.998;2023-03-11T09:55:49;30.75;;;15.27;;
26582;SDS011;14230;45.382;10.998;2023-03-11T10:00:53;22.27;;;14.45;;
26582;SDS011;14230;45.382;10.998;2023-03-11T10:03:28;21.08;;;13.52;;
26582;SDS011;14230;45.382;10.998;2023-03-11T10:14:20;22.05;;;14.10;;
26582;SDS011;14230;45.382;10.998;2023-03-11T10:17:35;25.58;;;15.27;;
26582;SDS011;14230;45.382;10.998;2023-03-11T10:20:21;25.67;;;15.68;;
26582;SDS011;14230;45.382;10.998;2023-03-11T10:28:12;25.50;;;15.68;;
26582;SDS011;14230;45.382;10.998;2023-03-11T10:30:54;26.08;;;15.02;;
26582;SDS011;14230;45.382;10.998;2023-03-11T10:33:46;29.98;;;16.25;;
26582;SDS011;14230;45.382;10.998;2023-03-11T10:36:20;27.33;;;15.98;;
26582;SDS011;14230;45.382;10.998;2023-03-11T10:38:50;26.92;;;15.15;;
26582;SDS011;14230;45.382;10.998;2023-03-11T10:41:29;27.08;;;14.75;;
26582;SDS011;14230;45.382;10.998;2023-03-11T10:44:10;32.53;;;16.98;;
26582;SDS011;14230;45.382;10.998;2023-03-11T10:46:51;27.45;;;16.60;;
26582;SDS011;14230;45.382;10.998;2023-03-11T10:49:19;23.17;;;15.40;;
26582;SDS011;14230;45.382;10.998;2023-03-11T10:51:47;27.05;;;16.10;;
26582;SDS011;14230;45.382;10.998;2023-03-11T10:54:21;25.67;;;15.98;;
26582;SDS011;14230;45.382;10.998;2023-03-11T10:57:01;28.10;;;16.02;;
26582;SDS011;14230;45.382;10.998;2023-03-11T10:59:31;25.80;;;14.43;;
26582;SDS011;14230;45.382;10.998;2023-03-11T11:02:02;24.85;;;15.77;;
26582;SDS011;14230;45.382;10.998;2023-03-11T11:05:03;27.10;;;16.25;;
26582;SDS011;14230;45.382;10.998;2023-03-11T11:07:44;29.23;;;15.20;;
26582;SDS011;14230;45.382;10.998;2023-03-11T11:10:13;25.42;;;16.15;;
26582;SDS011;14230;45.382;10.998;2023-03-11T11:16:20;23.85;;;15.15;;
26582;SDS011;14230;45.382;10.998;2023-03-11T11:18:43;23.83;;;14.65;;
26582;SDS011;14230;45.382;10.998;2023-03-11T11:24:02;23.35;;;15.07;;
26582;SDS011;14230;45.382;10.998;2023-03-11T11:29:41;24.35;;;14.70;;
26582;SDS011;14230;45.382;10.998;2023-03-11T11:37:21;28.45;;;14.68;;
26582;SDS011;14230;45.382;10.998;2023-03-11T11:39:49;35.97;;;15.02;;
26582;SDS011;14230;45.382;10.998;2023-03-11T11:42:22;25.48;;;14.65;;
26582;SDS011;14230;45.382;10.998;2023-03-11T11:44:54;25.40;;;14.95;;
26582;SDS011;14230;45.382;10.998;2023-03-11T11:47:32;23.52;;;14.65;;
26582;SDS011;14230;45.382;10.998;2023-03-11T11:50:05;23.67;;;14.57;;
26582;SDS011;14230;45.382;10.998;2023-03-11T11:53:55;23.67;;;15.18;;
26582;SDS011;14230;45.382;10.998;2023-03-11T11:56:04;25.33;;;15.90;;
26582;SDS011;14230;45.382;10.998;2023-03-11T11:58:31;34.08;;;15.55;;
26582;SDS011;14230;45.382;10.998;2023-03-11T12:09:12;27.35;;;15.57;;
26582;SDS011;14230;45.382;10.998;2023-03-11T12:14:34;31.45;;;14.88;;
26582;SDS011;14230;45.382;10.998;2023-03-11T12:17:22;24.88;;;15.13;;
26582;SDS011;14230;45.382;10.998;2023-03-11T12:19:57;25.35;;;14.18;;
26582;SDS011;14230;45.382;10.998;2023-03-11T12:28:04;24.50;;;14.00;;
26582;SDS011;14230;45.382;10.998;2023-03-11T12:30:57;37.45;;;13.77;;
26582;SDS011;14230;45.382;10.998;2023-03-11T12:36:01;23.73;;;14.30;;
26582;SDS011;14230;45.382;10.998;2023-03-11T12:46:09;19.58;;;12.90;;
26582;SDS011;14230;45.382;10.998;2023-03-11T12:48:45;22.98;;;13.07;;
26582;SDS011;14230;45.382;10.998;2023-03-11T13:07:40;23.02;;;13.25;;
26582;SDS011;14230;45.382;10.998;2023-03-11T13:17:57;23.85;;;12.43;;
26582;SDS011;14230;45.382;10.998;2023-03-11T13:42:39;18.95;;;10.95;;
26582;SDS011;14230;45.382;10.998;2023-03-11T13:45:30;25.02;;;12.18;;
26582;SDS011;14230;45.382;10.998;2023-03-11T13:48:03;25.27;;;11.80;;
26582;SDS011;14230;45.382;10.998;2023-03-11T13:50:53;24.30;;;11.27;;
26582;SDS011;14230;45.382;10.998;2023-03-11T13:56:26;17.92;;;11.30;;
26582;SDS011;14230;45.382;10.998;2023-03-11T13:59:19;18.73;;;10.93;;
26582;SDS011;14230;45.382;10.998;2023-03-11T14:01:56;17.20;;;10.52;;
26582;SDS011;14230;45.382;10.998;2023-03-11T14:04:28;16.15;;;11.00;;
26582;SDS011;14230;45.382;10.998;2023-03-11T14:07:18;20.55;;;12.23;;
26582;SDS011;14230;45.382;10.998;2023-03-11T14:09:51;28.83;;;11.13;;
26582;SDS011;14230;45.382;10.998;2023-03-11T14:12:48;19.05;;;10.90;;
26582;SDS011;14230;45.382;10.998;2023-03-11T14:15:22;26.80;;;11.95;;
26582;SDS011;14230;45.382;10.998;2023-03-11T14:17:52;20.38;;;10.95;;
26582;SDS011;14230;45.382;10.998;2023-03-11T14:20:40;17.38;;;10.15;;
26582;SDS011;14230;45.382;10.998;2023-03-11T14:23:14;21.10;;;11.15;;
26582;SDS011;14230;45.382;10.998;2023-03-11T14:25:44;18.92;;;11.40;;
26582;SDS011;14230;45.382;10.998;2023-03-11T14:28:12;19.88;;;12.15;;
26582;SDS011;14230;45.382;10.998;2023-03-11T14:30:56;23.45;;;12.45;;
26582;SDS011;14230;45.382;10.998;2023-03-11T14:33:25;25.33;;;11.93;;
26582;SDS011;14230;45.382;10.998;2023-03-11T14:36:03;26.33;;;12.18;;
26582;SDS011;14230;45.382;10.998;2023-03-11T14:38:40;18.88;;;11.57;;
26582;SDS011;14230;45.382;10.998;2023-03-11T14:41:09;17.23;;;11.40;;
26582;SDS011;14230;45.382;10.998;2023-03-11T14:43:41;19.27;;;10.68;;
26582;SDS011;14230;45.382;10.998;2023-03-11T14:46:21;17.70;;;12.35;;
26582;SDS011;14230;45.382;10.998;2023-03-11T14:48:53;23.80;;;12.82;;
26582;SDS011;14230;45.382;10.998;2023-03-11T14:51:28;18.88;;;11.95;;
26582;SDS011;14230;45.382;10.998;2023-03-11T14:56:33;26.63;;;12.23;;
26582;SDS011;14230;45.382;10.998;2023-03-11T15:01:38;25.10;;;13.55;;
26582;SDS011;14230;45.382;10.998;2023-03-11T15:04:53;25.23;;;13.00;;
26582;SDS011;14230;45.382;10.998;2023-03-11T15:06:59;22.95;;;11.75;;
26582;SDS011;14230;45.382;10.998;2023-03-11T15:09:27;28.15;;;12.70;;
26582;SDS011;14230;45.382;10.998;2023-03-11T15:11:56;24.70;;;12.38;;
26582;SDS011;14230;45.382;10.998;2023-03-11T15:14:26;25.67;;;13.82;;
26582;SDS011;14230;45.382;10.998;2023-03-11T15:20:21;26.58;;;12.88;;
26582;SDS011;14230;45.382;10.998;2023-03-11T15:23:01;22.17;;;12.70;;
26582;SDS011;14230;45.382;10.998;2023-03-11T15:25:35;21.65;;;13.05;;
26582;SDS011;14230;45.382;10.998;2023-03-11T15:28:19;20.65;;;13.02;;
26582;SDS011;14230;45.382;10.998;2023-03-11T15:31:12;27.92;;;13.48;;
26582;SDS011;14230;45.382;10.998;2023-03-11T15:33:42;25.73;;;12.60;;
26582;SDS011;14230;45.382;10.998;2023-03-11T15:41:40;26.17;;;13.80;;
26582;SDS011;14230;45.382;10.998;2023-03-11T15:46:55;25.08;;;12.65;;
26582;SDS011;14230;45.382;10.998;2023-03-11T15:49:26;23.27;;;12.68;;
26582;SDS011;14230;45.382;10.998;2023-03-11T15:51:57;19.05;;;12.10;;
26582;SDS011;14230;45.382;10.998;2023-03-11T15:54:26;32.47;;;14.07;;
26582;SDS011;14230;45.382;10.998;2023-03-11T15:56:55;27.77;;;13.35;;
26582;SDS011;14230;45.382;10.998;2023-03-11T15:59:27;28.88;;;13.93;;
26582;SDS011;14230;45.382;10.998;2023-03-11T16:01:55;30.27;;;14.70;;
26582;SDS011;14230;45.382;10.998;2023-03-11T16:04:24;30.08;;;15.10;;
26582;SDS011;14230;45.382;10.998;2023-03-11T16:06:52;35.33;;;14.02;;
26582;SDS011;14230;45.382;10.998;2023-03-11T16:09:33;25.92;;;13.75;;
26582;SDS011;14230;45.382;10.998;2023-03-11T16:12:01;24.70;;;12.98;;
26582;SDS011;14230;45.382;10.998;2023-03-11T16:14:35;29.27;;;13.95;;
26582;SDS011;14230;45.382;10.998;2023-03-11T16:17:02;31.77;;;14.10;;
26582;SDS011;14230;45.382;10.998;2023-03-11T16:19:29;25.23;;;12.65;;
26582;SDS011;14230;45.382;10.998;2023-03-11T16:21:57;22.45;;;13.02;;
26582;SDS011;14230;45.382;10.998;2023-03-11T16:24:25;25.38;;;13.82;;
26582;SDS011;14230;45.382;10.998;2023-03-11T16:26:52;31.02;;;13.80;;
26582;SDS011;14230;45.382;10.998;2023-03-11T16:29:20;26.35;;;12.98;;
26582;SDS011;14230;45.382;10.998;2023-03-11T16:31:49;25.33;;;13.60;;
26582;SDS011;14230;45.382;10.998;2023-03-11T16:34:16;29.45;;;14.07;;
26582;SDS011;14230;45.382;10.998;2023-03-11T16:36:44;26.65;;;12.82;;
26582;SDS011;14230;45.382;10.998;2023-03-11T16:39:12;25.77;;;12.95;;
26582;SDS011;14230;45.382;10.998;2023-03-11T16:41:41;26.13;;;13.52;;
26582;SDS011;14230;45.382;10.998;2023-03-11T16:44:10;26.45;;;12.50;;
26582;SDS011;14230;45.382;10.998;2023-03-11T16:46:38;29.52;;;15.18;;
26582;SDS011;14230;45.382;10.998;2023-03-11T16:49:05;31.70;;;14.25;;
26582;SDS011;14230;45.382;10.998;2023-03-11T16:51:33;30.25;;;14.93;;
26582;SDS011;14230;45.382;10.998;2023-03-11T16:54:00;27.83;;;14.80;;
26582;SDS011;14230;45.382;10.998;2023-03-11T16:56:27;32.35;;;14.57;;
26582;SDS011;14230;45.382;10.998;2023-03-11T16:58:55;28.63;;;14.60;;
26582;SDS011;14230;45.382;10.998;2023-03-11T17:01:22;30.17;;;15.00;;
26582;SDS011;14230;45.382;10.998;2023-03-11T17:03:50;29.10;;;15.38;;